sensor_id;sensor_type;location;lat;lon;timestamp;P1;durP1;ratioP1;P2;durP2;ratioP2
70075;SDS011;63241;51.056;3.698;2023-04-25T00:00:41;34.08;;;8.15;;
70075;SDS011;63241;51.056;3.698;2023-04-25T00:03:09;31.48;;;8.20;;
70075;SDS011;63241;51.056;3.698;2023-04-25T00:05:37;34.38;;;8.30;;
70075;SDS011;63241;51.056;3.698;2023-04-25T00:08:05;26.75;;;7.45;;
70075;SDS011;63241;51.056;3.698;2023-04-25T00:10:32;32.40;;;8.08;;
70075;SDS011;63241;51.056;3.698;2023-04-25T00:13:00;48.70;;;10.60;;
70075;SDS011;63241;51.056;3.698;2023-04-25T00:15:28;33.53;;;8.83;;
70075;SDS011;63241;51.056;3.698;2023-04-25T00:17:58;27.27;;;7.50;;
70075;SDS011;63241;51.056;3.698;2023-04-25T00:20:26;29.32;;;8.60;;
70075;SDS011;63241;51.056;3.698;2023-04-25T00:22:54;38.63;;;7.65;;
70075;SDS011;63241;51.056;3.698;2023-04-25T00:25:22;31.40;;;7.30;;
70075;SDS011;63241;51.056;3.698;2023-04-25T00:27:49;29.42;;;7.70;;
70075;SDS011;63241;51.056;3.698;2023-04-25T00:30:17;27.13;;;8.13;;
70075;SDS011;63241;51.056;3.698;2023-04-25T00:32:45;25.05;;;7.75;;
70075;SDS011;63241;51.056;3.698;2023-04-25T00:35:12;24.43;;;7.33;;
70075;SDS011;63241;51.056;3.698;2023-04-25T00:37:40;29.82;;;7.60;;
70075;SDS011;63241;51.056;3.698;2023-04-25T00:40:08;36.23;;;8.98;;
70075;SDS011;63241;51.056;3.698;2023-04-25T00:42:36;31.95;;;7.67;;
70075;SDS011;63241;51.056;3.698;2023-04-25T00:45:05;25.72;;;7.25;;
70075;SDS011;63241;51.056;3.698;2023-04-25T00:47:33;24.47;;;6.90;;
70075;SDS011;63241;51.056;3.698;2023-04-25T00:50:03;32.60;;;8.93;;
70075;SDS011;63241;51.056;3.698;2023-04-25T00:52:31;32.83;;;7.72;;
70075;SDS011;63241;51.056;3.698;2023-04-25T00:54:59;29.27;;;7.70;;
70075;SDS011;63241;51.056;3.698;2023-04-25T00:57:27;38.28;;;8.10;;
70075;SDS011;63241;51.056;3.698;2023-04-25T00:59:54;37.08;;;7.78;;
70075;SDS011;63241;51.056;3.698;2023-04-25T01:02:23;28.02;;;7.85;;
70075;SDS011;63241;51.056;3.698;2023-04-25T01:04:52;28.65;;;7.05;;
70075;SDS011;63241;51.056;3.698;2023-04-25T01:07:20;21.82;;;6.03;;
70075;SDS011;63241;51.056;3.698;2023-04-25T01:09:48;26.02;;;7.30;;
70075;SDS011;63241;51.056;3.698;2023-04-25T01:12:17;20.20;;;6.35;;
70075;SDS011;63241;51.056;3.698;2023-04-25T01:14:45;27.95;;;6.62;;
70075;SDS011;63241;51.056;3.698;2023-04-25T01:17:13;29.12;;;6.72;;
70075;SDS011;63241;51.056;3.698;2023-04-25T01:19:41;24.63;;;6.22;;
70075;SDS011;63241;51.056;3.698;2023-04-25T01:22:10;24.32;;;6.42;;
70075;SDS011;63241;51.056;3.698;2023-04-25T01:24:38;27.37;;;6.62;;
70075;SDS011;63241;51.056;3.698;2023-04-25T01:27:06;31.27;;;6.75;;
70075;SDS011;63241;51.056;3.698;2023-04-25T01:29:36;29.52;;;7.17;;
70075;SDS011;63241;51.056;3.698;2023-04-25T01:32:03;31.45;;;7.28;;
70075;SDS011;63241;51.056;3.698;2023-04-25T01:34:32;31.12;;;7.53;;
70075;SDS011;63241;51.056;3.698;2023-04-25T01:37:00;28.52;;;7.40;;
70075;SDS011;63241;51.056;3.698;2023-04-25T01:39:30;31.05;;;7.58;;
70075;SDS011;63241;51.056;3.698;2023-04-25T01:41:58;29.32;;;7.45;;
70075;SDS011;63241;51.056;3.698;2023-04-25T01:44:27;33.20;;;7.33;;
70075;SDS011;63241;51.056;3.698;2023-04-25T01:46:55;35.45;;;7.83;;
70075;SDS011;63241;51.056;3.698;2023-04-25T01:49:22;27.90;;;7.65;;
70075;SDS011;63241;51.056;3.698;2023-04-25T01:51:50;29.72;;;7.08;;
70075;SDS011;63241;51.056;3.698;2023-04-25T01:54:18;29.98;;;7.87;;
70075;SDS011;63241;51.056;3.698;2023-04-25T01:56:49;36.23;;;8.43;;
70075;SDS011;63241;51.056;3.698;2023-04-25T01:59:18;25.27;;;7.42;;
70075;SDS011;63241;51.056;3.698;2023-04-25T02:01:48;26.80;;;7.62;;
70075;SDS011;63241;51.056;3.698;2023-04-25T02:04:16;32.75;;;9.03;;
70075;SDS011;63241;51.056;3.698;2023-04-25T02:06:44;24.52;;;7.78;;
70075;SDS011;63241;51.056;3.698;2023-04-25T02:09:11;37.65;;;7.33;;
70075;SDS011;63241;51.056;3.698;2023-04-25T02:11:39;41.28;;;8.23;;
70075;SDS011;63241;51.056;3.698;2023-04-25T02:14:07;30.52;;;7.67;;
70075;SDS011;63241;51.056;3.698;2023-04-25T02:16:34;31.90;;;8.55;;
70075;SDS011;63241;51.056;3.698;2023-04-25T02:19:02;31.77;;;8.38;;
70075;SDS011;63241;51.056;3.698;2023-04-25T02:21:30;32.35;;;7.87;;
70075;SDS011;63241;51.056;3.698;2023-04-25T02:23:58;31.82;;;7.95;;
70075;SDS011;63241;51.056;3.698;2023-04-25T02:26:26;28.02;;;7.90;;
70075;SDS011;63241;51.056;3.698;2023-04-25T02:28:54;32.73;;;8.38;;
70075;SDS011;63241;51.056;3.698;2023-04-25T02:31:21;31.27;;;8.53;;
70075;SDS011;63241;51.056;3.698;2023-04-25T02:33:49;29.02;;;8.55;;
70075;SDS011;63241;51.056;3.698;2023-04-25T02:36:17;30.08;;;7.90;;
70075;SDS011;63241;51.056;3.698;2023-04-25T02:38:44;28.23;;;7.50;;
70075;SDS011;63241;51.056;3.698;2023-04-25T02:41:12;32.63;;;8.63;;
70075;SDS011;63241;51.056;3.698;2023-04-25T02:43:40;31.97;;;7.72;;
70075;SDS011;63241;51.056;3.698;2023-04-25T02:46:07;36.10;;;8.55;;
70075;SDS011;63241;51.056;3.698;2023-04-25T02:48:35;34.48;;;7.72;;
70075;SDS011;63241;51.056;3.698;2023-04-25T02:51:03;34.95;;;7.50;;
70075;SDS011;63241;51.056;3.698;2023-04-25T02:53:31;31.50;;;8.85;;
70075;SDS011;63241;51.056;3.698;2023-04-25T02:55:58;28.15;;;8.08;;
70075;SDS011;63241;51.056;3.698;2023-04-25T02:58:26;32.00;;;7.78;;
70075;SDS011;63241;51.056;3.698;2023-04-25T03:00:54;31.60;;;7.95;;
70075;SDS011;63241;51.056;3.698;2023-04-25T03:03:22;24.87;;;7.62;;
70075;SDS011;63241;51.056;3.698;2023-04-25T03:05:50;27.67;;;7.03;;
70075;SDS011;63241;51.056;3.698;2023-04-25T03:08:18;32.80;;;7.20;;
70075;SDS011;63241;51.056;3.698;2023-04-25T03:10:45;30.77;;;6.67;;
70075;SDS011;63241;51.056;3.698;2023-04-25T03:13:13;37.50;;;8.03;;
70075;SDS011;63241;51.056;3.698;2023-04-25T03:15:41;30.97;;;6.65;;
70075;SDS011;63241;51.056;3.698;2023-04-25T03:18:09;29.92;;;6.30;;
70075;SDS011;63241;51.056;3.698;2023-04-25T03:20:36;46.98;;;8.30;;
70075;SDS011;63241;51.056;3.698;2023-04-25T03:23:05;27.40;;;8.18;;
70075;SDS011;63241;51.056;3.698;2023-04-25T03:25:33;54.13;;;14.98;;
70075;SDS011;63241;51.056;3.698;2023-04-25T03:28:00;34.27;;;9.75;;
70075;SDS011;63241;51.056;3.698;2023-04-25T03:30:28;28.38;;;6.72;;
70075;SDS011;63241;51.056;3.698;2023-04-25T03:32:56;28.87;;;5.97;;
70075;SDS011;63241;51.056;3.698;2023-04-25T03:35:23;23.60;;;5.87;;
70075;SDS011;63241;51.056;3.698;2023-04-25T03:37:51;23.90;;;5.40;;
70075;SDS011;63241;51.056;3.698;2023-04-25T03:40:19;25.37;;;5.72;;
70075;SDS011;63241;51.056;3.698;2023-04-25T03:42:46;20.23;;;5.45;;
70075;SDS011;63241;51.056;3.698;2023-04-25T03:45:14;29.23;;;5.03;;
70075;SDS011;63241;51.056;3.698;2023-04-25T03:47:42;19.60;;;4.87;;
70075;SDS011;63241;51.056;3.698;2023-04-25T03:50:09;23.45;;;5.55;;
70075;SDS011;63241;51.056;3.698;2023-04-25T03:52:37;22.17;;;5.40;;
70075;SDS011;63241;51.056;3.698;2023-04-25T03:55:05;25.95;;;5.78;;
70075;SDS011;63241;51.056;3.698;2023-04-25T03:57:33;31.90;;;6.40;;
70075;SDS011;63241;51.056;3.698;2023-04-25T04:00:01;25.25;;;6.10;;
70075;SDS011;63241;51.056;3.698;2023-04-25T04:02:30;27.67;;;5.67;;
70075;SDS011;63241;51.056;3.698;2023-04-25T04:04:58;18.30;;;5.72;;
70075;SDS011;63241;51.056;3.698;2023-04-25T04:07:26;19.35;;;4.95;;
70075;SDS011;63241;51.056;3.698;2023-04-25T04:09:54;22.93;;;5.90;;
70075;SDS011;63241;51.056;3.698;2023-04-25T04:12:22;17.77;;;4.90;;
70075;SDS011;63241;51.056;3.698;2023-04-25T04:14:49;26.15;;;5.53;;
70075;SDS011;63241;51.056;3.698;2023-04-25T04:17:17;28.92;;;5.90;;
70075;SDS011;63241;51.056;3.698;2023-04-25T04:19:44;13.03;;;4.72;;
70075;SDS011;63241;51.056;3.698;2023-04-25T04:22:12;23.10;;;5.67;;
70075;SDS011;63241;51.056;3.698;2023-04-25T04:24:40;26.52;;;5.92;;
70075;SDS011;63241;51.056;3.698;2023-04-25T04:27:09;21.85;;;5.10;;
70075;SDS011;63241;51.056;3.698;2023-04-25T04:29:38;20.35;;;5.47;;
70075;SDS011;63241;51.056;3.698;2023-04-25T04:32:06;27.98;;;6.40;;
70075;SDS011;63241;51.056;3.698;2023-04-25T04:34:34;23.30;;;5.65;;
70075;SDS011;63241;51.056;3.698;2023-04-25T04:37:02;19.23;;;5.37;;
70075;SDS011;63241;51.056;3.698;2023-04-25T04:39:29;18.10;;;5.60;;
70075;SDS011;63241;51.056;3.698;2023-04-25T04:41:57;27.27;;;5.80;;
70075;SDS011;63241;51.056;3.698;2023-04-25T04:44:26;26.35;;;6.05;;
70075;SDS011;63241;51.056;3.698;2023-04-25T04:47:01;19.17;;;6.80;;
70075;SDS011;63241;51.056;3.698;2023-04-25T04:49:30;23.87;;;5.70;;
70075;SDS011;63241;51.056;3.698;2023-04-25T04:51:58;23.95;;;6.30;;
70075;SDS011;63241;51.056;3.698;2023-04-25T04:54:26;19.80;;;6.25;;
70075;SDS011;63241;51.056;3.698;2023-04-25T04:56:54;23.35;;;6.30;;
70075;SDS011;63241;51.056;3.698;2023-04-25T04:59:21;28.07;;;6.40;;
70075;SDS011;63241;51.056;3.698;2023-04-25T05:01:49;23.27;;;6.78;;
70075;SDS011;63241;51.056;3.698;2023-04-25T05:04:17;26.70;;;6.87;;
70075;SDS011;63241;51.056;3.698;2023-04-25T05:06:44;24.75;;;6.05;;
70075;SDS011;63241;51.056;3.698;2023-04-25T05:09:12;19.17;;;6.62;;
70075;SDS011;63241;51.056;3.698;2023-04-25T05:11:40;32.35;;;6.47;;
70075;SDS011;63241;51.056;3.698;2023-04-25T05:14:08;22.82;;;6.33;;
70075;SDS011;63241;51.056;3.698;2023-04-25T05:16:36;22.90;;;6.20;;
70075;SDS011;63241;51.056;3.698;2023-04-25T05:19:03;18.23;;;6.47;;
70075;SDS011;63241;51.056;3.698;2023-04-25T05:21:31;30.37;;;6.37;;
70075;SDS011;63241;51.056;3.698;2023-04-25T05:23:59;24.70;;;5.87;;
70075;SDS011;63241;51.056;3.698;2023-04-25T05:26:27;23.25;;;5.62;;
70075;SDS011;63241;51.056;3.698;2023-04-25T05:28:57;18.65;;;5.35;;
70075;SDS011;63241;51.056;3.698;2023-04-25T05:31:24;21.62;;;5.85;;
70075;SDS011;63241;51.056;3.698;2023-04-25T05:33:52;15.08;;;5.25;;
70075;SDS011;63241;51.056;3.698;2023-04-25T05:36:20;19.10;;;4.58;;
70075;SDS011;63241;51.056;3.698;2023-04-25T05:38:48;19.37;;;5.65;;
70075;SDS011;63241;51.056;3.698;2023-04-25T05:41:16;16.10;;;4.92;;
70075;SDS011;63241;51.056;3.698;2023-04-25T05:43:43;22.00;;;5.03;;
70075;SDS011;63241;51.056;3.698;2023-04-25T05:46:13;16.07;;;4.75;;
70075;SDS011;63241;51.056;3.698;2023-04-25T05:48:42;22.70;;;5.53;;
70075;SDS011;63241;51.056;3.698;2023-04-25T05:51:10;14.50;;;4.65;;
70075;SDS011;63241;51.056;3.698;2023-04-25T05:53:37;16.57;;;4.00;;
70075;SDS011;63241;51.056;3.698;2023-04-25T05:56:05;22.00;;;5.22;;
70075;SDS011;63241;51.056;3.698;2023-04-25T05:58:33;18.07;;;5.53;;
70075;SDS011;63241;51.056;3.698;2023-04-25T06:01:01;19.65;;;4.78;;
70075;SDS011;63241;51.056;3.698;2023-04-25T06:03:29;23.83;;;5.03;;
70075;SDS011;63241;51.056;3.698;2023-04-25T06:05:57;21.00;;;4.53;;
70075;SDS011;63241;51.056;3.698;2023-04-25T06:08:24;15.18;;;4.58;;
70075;SDS011;63241;51.056;3.698;2023-04-25T06:10:52;16.12;;;3.90;;
70075;SDS011;63241;51.056;3.698;2023-04-25T06:13:20;18.82;;;4.70;;
70075;SDS011;63241;51.056;3.698;2023-04-25T06:15:48;14.03;;;4.12;;
70075;SDS011;63241;51.056;3.698;2023-04-25T06:18:15;17.35;;;5.33;;
70075;SDS011;63241;51.056;3.698;2023-04-25T06:20:43;13.48;;;4.05;;
70075;SDS011;63241;51.056;3.698;2023-04-25T06:23:11;20.65;;;3.87;;
70075;SDS011;63241;51.056;3.698;2023-04-25T06:25:38;13.48;;;3.27;;
70075;SDS011;63241;51.056;3.698;2023-04-25T06:28:06;20.10;;;3.72;;
70075;SDS011;63241;51.056;3.698;2023-04-25T06:30:34;17.02;;;3.92;;
70075;SDS011;63241;51.056;3.698;2023-04-25T06:33:01;12.47;;;3.90;;
70075;SDS011;63241;51.056;3.698;2023-04-25T06:35:29;16.87;;;4.42;;
70075;SDS011;63241;51.056;3.698;2023-04-25T06:37:57;16.97;;;4.42;;
70075;SDS011;63241;51.056;3.698;2023-04-25T06:40:25;16.40;;;3.85;;
70075;SDS011;63241;51.056;3.698;2023-04-25T06:42:53;19.82;;;4.05;;
70075;SDS011;63241;51.056;3.698;2023-04-25T06:45:21;11.63;;;3.10;;
70075;SDS011;63241;51.056;3.698;2023-04-25T06:47:48;15.55;;;2.85;;
70075;SDS011;63241;51.056;3.698;2023-04-25T06:50:16;13.48;;;3.20;;
70075;SDS011;63241;51.056;3.698;2023-04-25T06:52:44;12.98;;;3.33;;
70075;SDS011;63241;51.056;3.698;2023-04-25T06:55:11;10.65;;;3.25;;
70075;SDS011;63241;51.056;3.698;2023-04-25T06:57:39;18.10;;;2.90;;
70075;SDS011;63241;51.056;3.698;2023-04-25T07:00:07;11.25;;;3.58;;
70075;SDS011;63241;51.056;3.698;2023-04-25T07:02:35;11.97;;;3.47;;
70075;SDS011;63241;51.056;3.698;2023-04-25T07:05:03;12.78;;;2.72;;
70075;SDS011;63241;51.056;3.698;2023-04-25T07:07:31;9.85;;;2.70;;
70075;SDS011;63241;51.056;3.698;2023-04-25T07:09:59;10.63;;;2.80;;
70075;SDS011;63241;51.056;3.698;2023-04-25T07:12:27;16.02;;;3.22;;
70075;SDS011;63241;51.056;3.698;2023-04-25T07:14:54;11.40;;;3.40;;
70075;SDS011;63241;51.056;3.698;2023-04-25T07:17:22;9.10;;;3.00;;
70075;SDS011;63241;51.056;3.698;2023-04-25T07:19:50;16.50;;;2.85;;
70075;SDS011;63241;51.056;3.698;2023-04-25T07:22:17;9.15;;;2.50;;
70075;SDS011;63241;51.056;3.698;2023-04-25T07:24:45;9.35;;;2.33;;
70075;SDS011;63241;51.056;3.698;2023-04-25T07:27:14;9.13;;;2.08;;
70075;SDS011;63241;51.056;3.698;2023-04-25T07:29:42;7.75;;;2.87;;
70075;SDS011;63241;51.056;3.698;2023-04-25T07:32:09;9.83;;;2.52;;
70075;SDS011;63241;51.056;3.698;2023-04-25T07:34:39;7.65;;;2.17;;
70075;SDS011;63241;51.056;3.698;2023-04-25T07:37:07;9.80;;;2.60;;
70075;SDS011;63241;51.056;3.698;2023-04-25T07:39:35;9.50;;;2.27;;
70075;SDS011;63241;51.056;3.698;2023-04-25T07:42:03;7.75;;;2.10;;
70075;SDS011;63241;51.056;3.698;2023-04-25T07:44:32;11.48;;;2.20;;
70075;SDS011;63241;51.056;3.698;2023-04-25T07:47:05;7.72;;;2.33;;
70075;SDS011;63241;51.056;3.698;2023-04-25T07:49:33;8.33;;;2.40;;
70075;SDS011;63241;51.056;3.698;2023-04-25T07:52:02;7.97;;;2.42;;
70075;SDS011;63241;51.056;3.698;2023-04-25T07:54:31;8.43;;;2.00;;
70075;SDS011;63241;51.056;3.698;2023-04-25T07:56:59;6.08;;;2.05;;
70075;SDS011;63241;51.056;3.698;2023-04-25T07:59:28;5.87;;;2.20;;
70075;SDS011;63241;51.056;3.698;2023-04-25T08:01:56;9.30;;;2.25;;
70075;SDS011;63241;51.056;3.698;2023-04-25T08:04:23;8.50;;;2.05;;
70075;SDS011;63241;51.056;3.698;2023-04-25T08:06:51;6.05;;;2.15;;
70075;SDS011;63241;51.056;3.698;2023-04-25T08:09:20;6.90;;;2.25;;
70075;SDS011;63241;51.056;3.698;2023-04-25T08:11:48;5.42;;;1.72;;
70075;SDS011;63241;51.056;3.698;2023-04-25T08:14:15;8.10;;;2.00;;
70075;SDS011;63241;51.056;3.698;2023-04-25T08:16:43;7.97;;;2.02;;
70075;SDS011;63241;51.056;3.698;2023-04-25T08:19:11;10.25;;;2.40;;
70075;SDS011;63241;51.056;3.698;2023-04-25T08:21:38;7.70;;;2.87;;
70075;SDS011;63241;51.056;3.698;2023-04-25T08:24:06;9.40;;;2.47;;
70075;SDS011;63241;51.056;3.698;2023-04-25T08:26:34;8.13;;;1.90;;
70075;SDS011;63241;51.056;3.698;2023-04-25T08:29:03;8.73;;;3.62;;
70075;SDS011;63241;51.056;3.698;2023-04-25T08:31:31;6.25;;;2.17;;
70075;SDS011;63241;51.056;3.698;2023-04-25T08:33:59;9.25;;;2.15;;
70075;SDS011;63241;51.056;3.698;2023-04-25T08:36:26;6.30;;;2.30;;
70075;SDS011;63241;51.056;3.698;2023-04-25T08:38:54;7.25;;;2.00;;
70075;SDS011;63241;51.056;3.698;2023-04-25T08:41:21;5.30;;;1.87;;
70075;SDS011;63241;51.056;3.698;2023-04-25T08:43:50;7.80;;;1.98;;
70075;SDS011;63241;51.056;3.698;2023-04-25T08:46:19;7.25;;;2.22;;
70075;SDS011;63241;51.056;3.698;2023-04-25T08:48:47;5.45;;;1.85;;
70075;SDS011;63241;51.056;3.698;2023-04-25T08:51:27;4.78;;;1.67;;
70075;SDS011;63241;51.056;3.698;2023-04-25T08:53:53;5.17;;;1.92;;
70075;SDS011;63241;51.056;3.698;2023-04-25T08:56:22;6.15;;;1.80;;
70075;SDS011;63241;51.056;3.698;2023-04-25T08:58:50;5.17;;;1.82;;
70075;SDS011;63241;51.056;3.698;2023-04-25T09:01:18;4.65;;;1.72;;
70075;SDS011;63241;51.056;3.698;2023-04-25T09:03:46;6.58;;;1.85;;
70075;SDS011;63241;51.056;3.698;2023-04-25T09:06:14;4.25;;;1.65;;
70075;SDS011;63241;51.056;3.698;2023-04-25T09:08:43;7.70;;;1.90;;
70075;SDS011;63241;51.056;3.698;2023-04-25T09:11:10;10.35;;;2.70;;
70075;SDS011;63241;51.056;3.698;2023-04-25T09:13:40;7.50;;;2.42;;
70075;SDS011;63241;51.056;3.698;2023-04-25T09:16:08;7.00;;;1.75;;
70075;SDS011;63241;51.056;3.698;2023-04-25T09:18:36;9.73;;;2.10;;
70075;SDS011;63241;51.056;3.698;2023-04-25T09:21:07;5.62;;;1.67;;
70075;SDS011;63241;51.056;3.698;2023-04-25T09:23:43;9.93;;;2.10;;
70075;SDS011;63241;51.056;3.698;2023-04-25T09:26:16;8.53;;;1.80;;
70075;SDS011;63241;51.056;3.698;2023-04-25T09:28:45;8.40;;;2.10;;
70075;SDS011;63241;51.056;3.698;2023-04-25T09:31:21;9.55;;;1.95;;
70075;SDS011;63241;51.056;3.698;2023-04-25T09:34:02;8.68;;;1.90;;
70075;SDS011;63241;51.056;3.698;2023-04-25T09:36:29;7.08;;;2.05;;
70075;SDS011;63241;51.056;3.698;2023-04-25T09:38:57;8.58;;;1.98;;
70075;SDS011;63241;51.056;3.698;2023-04-25T09:41:27;7.20;;;1.95;;
70075;SDS011;63241;51.056;3.698;2023-04-25T09:43:56;6.92;;;1.92;;
70075;SDS011;63241;51.056;3.698;2023-04-25T09:46:24;4.60;;;1.45;;
70075;SDS011;63241;51.056;3.698;2023-04-25T09:48:52;3.95;;;1.42;;
70075;SDS011;63241;51.056;3.698;2023-04-25T09:51:19;4.92;;;1.42;;
70075;SDS011;63241;51.056;3.698;2023-04-25T09:53:49;6.00;;;1.47;;
70075;SDS011;63241;51.056;3.698;2023-04-25T09:56:16;6.78;;;1.50;;
70075;SDS011;63241;51.056;3.698;2023-04-25T09:58:46;4.22;;;1.60;;
70075;SDS011;63241;51.056;3.698;2023-04-25T10:09:32;4.53;;;1.50;;
70075;SDS011;63241;51.056;3.698;2023-04-25T10:12:00;6.83;;;1.60;;
70075;SDS011;63241;51.056;3.698;2023-04-25T10:14:32;4.62;;;1.72;;
70075;SDS011;63241;51.056;3.698;2023-04-25T10:17:00;9.05;;;1.65;;
70075;SDS011;63241;51.056;3.698;2023-04-25T10:19:28;6.90;;;1.80;;
70075;SDS011;63241;51.056;3.698;2023-04-25T10:25:04;6.33;;;2.30;;
70075;SDS011;63241;51.056;3.698;2023-04-25T10:27:34;8.85;;;2.10;;
70075;SDS011;63241;51.056;3.698;2023-04-25T10:30:13;13.20;;;2.17;;
70075;SDS011;63241;51.056;3.698;2023-04-25T10:32:42;11.33;;;2.27;;
70075;SDS011;63241;51.056;3.698;2023-04-25T10:35:11;8.98;;;2.10;;
70075;SDS011;63241;51.056;3.698;2023-04-25T10:40:33;9.58;;;2.95;;
70075;SDS011;63241;51.056;3.698;2023-04-25T10:46:02;7.87;;;1.70;;
70075;SDS011;63241;51.056;3.698;2023-04-25T10:48:45;5.87;;;1.70;;
70075;SDS011;63241;51.056;3.698;2023-04-25T10:54:14;5.47;;;1.50;;
70075;SDS011;63241;51.056;3.698;2023-04-25T10:56:44;5.70;;;1.90;;
70075;SDS011;63241;51.056;3.698;2023-04-25T10:59:18;6.87;;;1.87;;
70075;SDS011;63241;51.056;3.698;2023-04-25T11:01:48;6.33;;;1.80;;
70075;SDS011;63241;51.056;3.698;2023-04-25T11:09:56;7.22;;;1.70;;
70075;SDS011;63241;51.056;3.698;2023-04-25T11:12:29;5.33;;;1.57;;
70075;SDS011;63241;51.056;3.698;2023-04-25T11:15:02;5.53;;;1.60;;
70075;SDS011;63241;51.056;3.698;2023-04-25T11:17:28;6.30;;;1.70;;
70075;SDS011;63241;51.056;3.698;2023-04-25T11:20:30;7.30;;;1.80;;
70075;SDS011;63241;51.056;3.698;2023-04-25T11:22:58;7.20;;;1.85;;
70075;SDS011;63241;51.056;3.698;2023-04-25T11:25:26;6.42;;;1.25;;
70075;SDS011;63241;51.056;3.698;2023-04-25T11:27:55;5.37;;;1.12;;
70075;SDS011;63241;51.056;3.698;2023-04-25T11:30:26;7.00;;;1.55;;
70075;SDS011;63241;51.056;3.698;2023-04-25T11:32:56;5.70;;;1.55;;
70075;SDS011;63241;51.056;3.698;2023-04-25T11:35:24;6.37;;;1.80;;
70075;SDS011;63241;51.056;3.698;2023-04-25T11:37:52;5.87;;;1.60;;
70075;SDS011;63241;51.056;3.698;2023-04-25T11:40:20;8.85;;;1.67;;
70075;SDS011;63241;51.056;3.698;2023-04-25T11:42:48;10.15;;;1.75;;
70075;SDS011;63241;51.056;3.698;2023-04-25T11:45:15;8.90;;;2.27;;
70075;SDS011;63241;51.056;3.698;2023-04-25T11:47:44;5.90;;;1.60;;
70075;SDS011;63241;51.056;3.698;2023-04-25T11:50:12;6.05;;;1.85;;
70075;SDS011;63241;51.056;3.698;2023-04-25T11:52:41;4.90;;;1.55;;
70075;SDS011;63241;51.056;3.698;2023-04-25T11:55:14;5.20;;;1.55;;
70075;SDS011;63241;51.056;3.698;2023-04-25T11:57:43;8.90;;;1.82;;
70075;SDS011;63241;51.056;3.698;2023-04-25T12:00:16;6.28;;;1.80;;
70075;SDS011;63241;51.056;3.698;2023-04-25T12:02:46;7.65;;;1.80;;
70075;SDS011;63241;51.056;3.698;2023-04-25T12:05:16;6.25;;;1.60;;
70075;SDS011;63241;51.056;3.698;2023-04-25T12:07:43;6.10;;;1.50;;
70075;SDS011;63241;51.056;3.698;2023-04-25T12:10:11;8.10;;;1.87;;
70075;SDS011;63241;51.056;3.698;2023-04-25T12:12:41;6.92;;;2.08;;
70075;SDS011;63241;51.056;3.698;2023-04-25T12:15:11;6.33;;;1.70;;
70075;SDS011;63241;51.056;3.698;2023-04-25T12:17:45;6.85;;;1.37;;
70075;SDS011;63241;51.056;3.698;2023-04-25T12:20:14;5.62;;;1.90;;
70075;SDS011;63241;51.056;3.698;2023-04-25T12:22:47;10.53;;;1.87;;
70075;SDS011;63241;51.056;3.698;2023-04-25T12:28:10;4.90;;;1.92;;
70075;SDS011;63241;51.056;3.698;2023-04-25T12:33:48;5.10;;;1.90;;
70075;SDS011;63241;51.056;3.698;2023-04-25T12:36:16;8.78;;;1.67;;
70075;SDS011;63241;51.056;3.698;2023-04-25T12:38:44;5.75;;;1.80;;
70075;SDS011;63241;51.056;3.698;2023-04-25T12:41:15;6.53;;;2.15;;
70075;SDS011;63241;51.056;3.698;2023-04-25T12:43:42;5.87;;;1.65;;
70075;SDS011;63241;51.056;3.698;2023-04-25T12:46:10;6.20;;;1.87;;
70075;SDS011;63241;51.056;3.698;2023-04-25T12:48:38;9.08;;;1.98;;
70075;SDS011;63241;51.056;3.698;2023-04-25T12:51:05;8.40;;;2.15;;
70075;SDS011;63241;51.056;3.698;2023-04-25T12:53:33;7.97;;;1.60;;
70075;SDS011;63241;51.056;3.698;2023-04-25T12:56:02;7.85;;;1.90;;
70075;SDS011;63241;51.056;3.698;2023-04-25T12:58:30;10.40;;;1.90;;
70075;SDS011;63241;51.056;3.698;2023-04-25T13:00:59;7.03;;;2.20;;
70075;SDS011;63241;51.056;3.698;2023-04-25T13:03:27;6.12;;;1.82;;
70075;SDS011;63241;51.056;3.698;2023-04-25T13:05:54;8.65;;;1.77;;
70075;SDS011;63241;51.056;3.698;2023-04-25T13:08:22;9.15;;;2.10;;
70075;SDS011;63241;51.056;3.698;2023-04-25T13:10:50;7.12;;;1.92;;
70075;SDS011;63241;51.056;3.698;2023-04-25T13:13:18;6.25;;;2.00;;
70075;SDS011;63241;51.056;3.698;2023-04-25T13:15:46;7.60;;;2.17;;
70075;SDS011;63241;51.056;3.698;2023-04-25T13:18:14;5.45;;;1.92;;
70075;SDS011;63241;51.056;3.698;2023-04-25T13:20:42;7.67;;;1.75;;
70075;SDS011;63241;51.056;3.698;2023-04-25T13:23:09;7.58;;;1.82;;
70075;SDS011;63241;51.056;3.698;2023-04-25T13:25:37;7.60;;;1.90;;
70075;SDS011;63241;51.056;3.698;2023-04-25T13:28:05;9.28;;;2.60;;
70075;SDS011;63241;51.056;3.698;2023-04-25T13:30:32;10.78;;;2.42;;
70075;SDS011;63241;51.056;3.698;2023-04-25T13:33:00;7.30;;;2.08;;
70075;SDS011;63241;51.056;3.698;2023-04-25T13:35:29;7.08;;;2.20;;
70075;SDS011;63241;51.056;3.698;2023-04-25T13:37:57;10.40;;;2.30;;
70075;SDS011;63241;51.056;3.698;2023-04-25T13:40:25;8.50;;;1.80;;
70075;SDS011;63241;51.056;3.698;2023-04-25T13:42:53;7.20;;;2.15;;
70075;SDS011;63241;51.056;3.698;2023-04-25T13:45:21;6.45;;;1.87;;
70075;SDS011;63241;51.056;3.698;2023-04-25T13:47:49;7.87;;;1.85;;
70075;SDS011;63241;51.056;3.698;2023-04-25T13:50:16;5.92;;;2.00;;
70075;SDS011;63241;51.056;3.698;2023-04-25T13:52:44;9.98;;;2.15;;
70075;SDS011;63241;51.056;3.698;2023-04-25T13:55:12;6.70;;;1.82;;
70075;SDS011;63241;51.056;3.698;2023-04-25T13:57:40;6.10;;;1.75;;
70075;SDS011;63241;51.056;3.698;2023-04-25T14:00:07;7.20;;;1.90;;
70075;SDS011;63241;51.056;3.698;2023-04-25T14:02:35;6.17;;;1.82;;
70075;SDS011;63241;51.056;3.698;2023-04-25T14:05:04;8.48;;;1.67;;
70075;SDS011;63241;51.056;3.698;2023-04-25T14:07:33;6.58;;;1.45;;
70075;SDS011;63241;51.056;3.698;2023-04-25T14:10:02;8.10;;;1.85;;
70075;SDS011;63241;51.056;3.698;2023-04-25T14:12:31;10.15;;;2.15;;
70075;SDS011;63241;51.056;3.698;2023-04-25T14:14:59;6.30;;;2.20;;
70075;SDS011;63241;51.056;3.698;2023-04-25T14:17:27;5.33;;;1.40;;
70075;SDS011;63241;51.056;3.698;2023-04-25T14:19:54;5.83;;;1.50;;
70075;SDS011;63241;51.056;3.698;2023-04-25T14:22:22;6.37;;;1.52;;
70075;SDS011;63241;51.056;3.698;2023-04-25T14:24:50;9.30;;;3.50;;
70075;SDS011;63241;51.056;3.698;2023-04-25T14:27:18;9.73;;;2.85;;
70075;SDS011;63241;51.056;3.698;2023-04-25T14:29:46;6.83;;;2.08;;
70075;SDS011;63241;51.056;3.698;2023-04-25T14:32:14;7.92;;;1.80;;
70075;SDS011;63241;51.056;3.698;2023-04-25T14:34:42;7.00;;;1.60;;
70075;SDS011;63241;51.056;3.698;2023-04-25T14:37:09;5.80;;;1.72;;
70075;SDS011;63241;51.056;3.698;2023-04-25T14:39:37;9.10;;;1.70;;
70075;SDS011;63241;51.056;3.698;2023-04-25T14:42:05;7.47;;;1.65;;
70075;SDS011;63241;51.056;3.698;2023-04-25T14:44:32;5.45;;;1.35;;
70075;SDS011;63241;51.056;3.698;2023-04-25T14:47:00;7.75;;;1.92;;
70075;SDS011;63241;51.056;3.698;2023-04-25T14:49:28;6.87;;;1.90;;
70075;SDS011;63241;51.056;3.698;2023-04-25T14:51:56;9.78;;;1.80;;
70075;SDS011;63241;51.056;3.698;2023-04-25T14:54:23;7.50;;;1.30;;
70075;SDS011;63241;51.056;3.698;2023-04-25T14:56:51;6.00;;;1.70;;
70075;SDS011;63241;51.056;3.698;2023-04-25T14:59:19;6.45;;;1.70;;
70075;SDS011;63241;51.056;3.698;2023-04-25T15:01:47;7.58;;;1.77;;
70075;SDS011;63241;51.056;3.698;2023-04-25T15:04:15;8.95;;;2.40;;
70075;SDS011;63241;51.056;3.698;2023-04-25T15:06:43;12.13;;;2.02;;
70075;SDS011;63241;51.056;3.698;2023-04-25T15:09:11;7.85;;;1.90;;
70075;SDS011;63241;51.056;3.698;2023-04-25T15:11:38;6.03;;;1.72;;
70075;SDS011;63241;51.056;3.698;2023-04-25T15:14:06;6.35;;;1.80;;
70075;SDS011;63241;51.056;3.698;2023-04-25T15:16:34;8.48;;;1.65;;
70075;SDS011;63241;51.056;3.698;2023-04-25T15:19:02;5.28;;;1.50;;